sensor_id;sensor_type;location;lat;lon;timestamp;temperature;humidity
15749;DHT22;7976;52.526;13.326;2023-02-28T00:00:02;3.30;99.90
15749;DHT22;7976;52.526;13.326;2023-02-28T00:02:35;3.20;99.90
15749;DHT22;7976;52.526;13.326;2023-02-28T00:05:04;3.20;99.90
15749;DHT22;7976;52.526;13.326;2023-02-28T00:07:35;3.20;99.90
15749;DHT22;7976;52.526;13.326;2023-02-28T00:10:04;3.20;99.90
15749;DHT22;7976;52.526;13.326;2023-02-28T00:12:34;3.20;99.90
15749;DHT22;7976;52.526;13.326;2023-02-28T00:15:02;3.20;99.90
15749;DHT22;7976;52.526;13.326;2023-02-28T00:17:32;3.20;99.90
15749;DHT22;7976;52.526;13.326;2023-02-28T00:20:01;3.20;99.90
15749;DHT22;7976;52.526;13.326;2023-02-28T00:22:38;3.20;99.90
15749;DHT22;7976;52.526;13.326;2023-02-28T00:25:21;3.20;99.90
15749;DHT22;7976;52.526;13.326;2023-02-28T00:28:02;3.20;99.90
15749;DHT22;7976;52.526;13.326;2023-02-28T00:30:42;3.10;99.90
15749;DHT22;7976;52.526;13.326;2023-02-28T00:33:12;3.20;99.90
15749;DHT22;7976;52.526;13.326;2023-02-28T00:35:39;3.20;99.90
15749;DHT22;7976;52.526;13.326;2023-02-28T00:38:11;3.20;99.90
15749;DHT22;7976;52.526;13.326;2023-02-28T00:40:44;3.20;99.90
15749;DHT22;7976;52.526;13.326;2023-02-28T00:43:13;3.20;99.90
15749;DHT22;7976;52.526;13.326;2023-02-28T00:45:44;3.20;99.90
15749;DHT22;7976;52.526;13.326;2023-02-28T00:48:11;3.20;99.90
15749;DHT22;7976;52.526;13.326;2023-02-28T00:50:39;3.20;99.90
15749;DHT22;7976;52.526;13.326;2023-02-28T00:53:11;3.30;99.90
15749;DHT22;7976;52.526;13.326;2023-02-28T00:55:38;3.30;99.90
15749;DHT22;7976;52.526;13.326;2023-02-28T00:58:07;3.30;99.90
15749;DHT22;7976;52.526;13.326;2023-02-28T01:00:34;3.30;99.90
15749;DHT22;7976;52.526;13.326;2023-02-28T01:03:01;3.30;99.90
15749;DHT22;7976;52.526;13.326;2023-02-28T01:05:29;3.30;99.90
15749;DHT22;7976;52.526;13.326;2023-02-28T01:07:57;3.30;99.90
15749;DHT22;7976;52.526;13.326;2023-02-28T01:10:34;3.30;99.90
15749;DHT22;7976;52.526;13.326;2023-02-28T01:13:02;3.20;99.90
15749;DHT22;7976;52.526;13.326;2023-02-28T01:15:31;3.20;99.90
15749;DHT22;7976;52.526;13.326;2023-02-28T01:17:59;3.30;99.90
15749;DHT22;7976;52.526;13.326;2023-02-28T01:20:26;3.20;99.90
15749;DHT22;7976;52.526;13.326;2023-02-28T01:23:01;3.20;99.90
15749;DHT22;7976;52.526;13.326;2023-02-28T01:25:28;3.20;99.90
15749;DHT22;7976;52.526;13.326;2023-02-28T01:27:59;3.30;99.90
15749;DHT22;7976;52.526;13.326;2023-02-28T01:30:28;3.30;99.90
15749;DHT22;7976;52.526;13.326;2023-02-28T01:32:56;3.20;99.90
15749;DHT22;7976;52.526;13.326;2023-02-28T01:35:24;3.20;99.90
15749;DHT22;7976;52.526;13.326;2023-02-28T01:37:52;3.20;99.90
15749;DHT22;7976;52.526;13.326;2023-02-28T01:40:19;3.20;99.90
15749;DHT22;7976;52.526;13.326;2023-02-28T01:42:50;3.20;99.90
15749;DHT22;7976;52.526;13.326;2023-02-28T01:45:22;3.20;99.90
15749;DHT22;7976;52.526;13.326;2023-02-28T01:47:54;3.20;99.90
15749;DHT22;7976;52.526;13.326;2023-02-28T01:50:28;3.20;99.90
15749;DHT22;7976;52.526;13.326;2023-02-28T01:53:01;3.20;99.90
15749;DHT22;7976;52.526;13.326;2023-02-28T01:55:32;3.20;99.90
15749;DHT22;7976;52.526;13.326;2023-02-28T01:58:02;3.20;99.90
15749;DHT22;7976;52.526;13.326;2023-02-28T02:00:32;3.20;99.90
15749;DHT22;7976;52.526;13.326;2023-02-28T02:03:06;3.10;99.90
15749;DHT22;7976;52.526;13.326;2023-02-28T02:05:37;3.20;99.90
15749;DHT22;7976;52.526;13.326;2023-02-28T02:08:08;3.20;99.90
15749;DHT22;7976;52.526;13.326;2023-02-28T02:10:41;3.20;99.90
15749;DHT22;7976;52.526;13.326;2023-02-28T02:13:30;3.20;99.90
15749;DHT22;7976;52.526;13.326;2023-02-28T02:16:18;3.20;99.90
15749;DHT22;7976;52.526;13.326;2023-02-28T02:19:00;3.10;99.90
15749;DHT22;7976;52.526;13.326;2023-02-28T02:22:04;3.10;99.90
15749;DHT22;7976;52.526;13.326;2023-02-28T02:25:12;3.00;99.90
15749;DHT22;7976;52.526;13.326;2023-02-28T02:31:55;2.90;99.90
15749;DHT22;7976;52.526;13.326;2023-02-28T02:34:58;2.90;99.90
15749;DHT22;7976;52.526;13.326;2023-02-28T02:37:45;2.90;99.90
15749;DHT22;7976;52.526;13.326;2023-02-28T02:40:20;2.90;99.90
15749;DHT22;7976;52.526;13.326;2023-02-28T02:42:57;2.90;99.90
15749;DHT22;7976;52.526;13.326;2023-02-28T02:45:49;2.80;99.90
15749;DHT22;7976;52.526;13.326;2023-02-28T02:48:25;2.80;99.90
15749;DHT22;7976;52.526;13.326;2023-02-28T02:51:00;2.80;99.90
15749;DHT22;7976;52.526;13.326;2023-02-28T02:53:34;2.80;99.90
15749;DHT22;7976;52.526;13.326;2023-02-28T02:56:06;2.80;99.90
15749;DHT22;7976;52.526;13.326;2023-02-28T02:58:38;2.80;99.90
15749;DHT22;7976;52.526;13.326;2023-02-28T03:01:12;2.70;99.90
15749;DHT22;7976;52.526;13.326;2023-02-28T03:03:54;2.80;99.90
15749;DHT22;7976;52.526;13.326;2023-02-28T03:06:24;2.80;99.90
15749;DHT22;7976;52.526;13.326;2023-02-28T03:08:51;2.80;99.90
15749;DHT22;7976;52.526;13.326;2023-02-28T03:11:18;2.80;99.90
15749;DHT22;7976;52.526;13.326;2023-02-28T03:14:02;2.70;99.90
15749;DHT22;7976;52.526;13.326;2023-02-28T03:16:54;2.70;99.90
15749;DHT22;7976;52.526;13.326;2023-02-28T03:19:36;2.70;99.90
15749;DHT22;7976;52.526;13.326;2023-02-28T03:22:33;2.70;99.90
15749;DHT22;7976;52.526;13.326;2023-02-28T03:25:18;2.70;99.90
15749;DHT22;7976;52.526;13.326;2023-02-28T03:27:59;2.70;99.90
15749;DHT22;7976;52.526;13.326;2023-02-28T03:30:36;2.60;99.90
15749;DHT22;7976;52.526;13.326;2023-02-28T03:33:11;2.70;99.90
15749;DHT22;7976;52.526;13.326;2023-02-28T03:35:45;2.60;99.90
15749;DHT22;7976;52.526;13.326;2023-02-28T03:38:23;2.50;99.90
15749;DHT22;7976;52.526;13.326;2023-02-28T03:41:01;2.50;99.90
15749;DHT22;7976;52.526;13.326;2023-02-28T03:43:36;2.50;99.90
15749;DHT22;7976;52.526;13.326;2023-02-28T03:46:15;2.50;99.90
15749;DHT22;7976;52.526;13.326;2023-02-28T03:48:52;2.50;99.90
15749;DHT22;7976;52.526;13.326;2023-02-28T03:51:24;2.50;99.90
15749;DHT22;7976;52.526;13.326;2023-02-28T03:53:59;2.50;99.90
15749;DHT22;7976;52.526;13.326;2023-02-28T03:56:36;2.50;99.90
15749;DHT22;7976;52.526;13.326;2023-02-28T03:59:09;2.50;99.90
15749;DHT22;7976;52.526;13.326;2023-02-28T04:01:42;2.50;99.90
15749;DHT22;7976;52.526;13.326;2023-02-28T04:04:11;2.50;99.90
15749;DHT22;7976;52.526;13.326;2023-02-28T04:06:39;2.50;99.90
15749;DHT22;7976;52.526;13.326;2023-02-28T04:09:11;2.50;99.90
15749;DHT22;7976;52.526;13.326;2023-02-28T04:11:41;2.50;99.90
15749;DHT22;7976;52.526;13.326;2023-02-28T04:14:10;2.50;99.90
15749;DHT22;7976;52.526;13.326;2023-02-28T04:16:39;2.50;99.90
15749;DHT22;7976;52.526;13.326;2023-02-28T04:19:08;2.50;99.90
15749;DHT22;7976;52.526;13.326;2023-02-28T04:21:38;2.50;99.90
15749;DHT22;7976;52.526;13.326;2023-02-28T04:24:10;2.50;99.90
15749;DHT22;7976;52.526;13.326;2023-02-28T04:26:41;2.50;99.90
15749;DHT22;7976;52.526;13.326;2023-02-28T04:29:10;2.50;99.90
15749;DHT22;7976;52.526;13.326;2023-02-28T04:31:39;2.50;99.90
15749;DHT22;7976;52.526;13.326;2023-02-28T04:34:06;2.50;99.90
15749;DHT22;7976;52.526;13.326;2023-02-28T04:36:33;2.50;99.90
15749;DHT22;7976;52.526;13.326;2023-02-28T04:39:00;2.40;99.90
15749;DHT22;7976;52.526;13.326;2023-02-28T04:41:28;2.40;99.90
15749;DHT22;7976;52.526;13.326;2023-02-28T04:43:55;2.40;99.90
15749;DHT22;7976;52.526;13.326;2023-02-28T04:46:23;2.40;99.90
15749;DHT22;7976;52.526;13.326;2023-02-28T04:48:49;2.40;99.90
15749;DHT22;7976;52.526;13.326;2023-02-28T04:51:18;2.40;99.90
15749;DHT22;7976;52.526;13.326;2023-02-28T04:53:46;2.40;99.90
15749;DHT22;7976;52.526;13.326;2023-02-28T04:56:16;2.40;99.90
15749;DHT22;7976;52.526;13.326;2023-02-28T04:58:45;2.30;99.90
15749;DHT22;7976;52.526;13.326;2023-02-28T05:01:20;2.30;99.90
15749;DHT22;7976;52.526;13.326;2023-02-28T05:03:50;2.30;99.90
15749;DHT22;7976;52.526;13.326;2023-02-28T05:06:19;2.20;99.90
15749;DHT22;7976;52.526;13.326;2023-02-28T05:08:47;2.20;99.90
15749;DHT22;7976;52.526;13.326;2023-02-28T05:11:16;2.20;99.90
15749;DHT22;7976;52.526;13.326;2023-02-28T05:13:46;2.20;99.90
15749;DHT22;7976;52.526;13.326;2023-02-28T05:16:13;2.20;99.90
15749;DHT22;7976;52.526;13.326;2023-02-28T05:18:41;2.20;99.90
15749;DHT22;7976;52.526;13.326;2023-02-28T05:21:25;2.20;99.90
15749;DHT22;7976;52.526;13.326;2023-02-28T05:23:55;2.20;99.90
15749;DHT22;7976;52.526;13.326;2023-02-28T05:26:24;2.10;99.90
15749;DHT22;7976;52.526;13.326;2023-02-28T05:28:53;2.10;99.90
15749;DHT22;7976;52.526;13.326;2023-02-28T05:31:21;2.10;99.90
15749;DHT22;7976;52.526;13.326;2023-02-28T05:33:48;2.10;99.90
15749;DHT22;7976;52.526;13.326;2023-02-28T05:36:15;2.10;99.90
15749;DHT22;7976;52.526;13.326;2023-02-28T05:38:42;2.20;99.90
15749;DHT22;7976;52.526;13.326;2023-02-28T05:41:10;2.10;99.90
15749;DHT22;7976;52.526;13.326;2023-02-28T05:43:37;2.20;99.90
15749;DHT22;7976;52.526;13.326;2023-02-28T05:46:07;2.10;99.90
15749;DHT22;7976;52.526;13.326;2023-02-28T05:48:36;2.10;99.90
15749;DHT22;7976;52.526;13.326;2023-02-28T05:51:05;2.10;99.90
15749;DHT22;7976;52.526;13.326;2023-02-28T05:53:33;2.10;99.90
15749;DHT22;7976;52.526;13.326;2023-02-28T05:56:03;2.00;99.90
15749;DHT22;7976;52.526;13.326;2023-02-28T05:58:30;2.10;99.90
15749;DHT22;7976;52.526;13.326;2023-02-28T06:00:58;2.10;99.90
15749;DHT22;7976;52.526;13.326;2023-02-28T06:03:27;2.10;99.90
15749;DHT22;7976;52.526;13.326;2023-02-28T06:05:54;2.10;99.90
15749;DHT22;7976;52.526;13.326;2023-02-28T06:08:21;2.10;99.90
15749;DHT22;7976;52.526;13.326;2023-02-28T06:10:47;2.10;99.90
15749;DHT22;7976;52.526;13.326;2023-02-28T06:13:14;2.10;99.90
15749;DHT22;7976;52.526;13.326;2023-02-28T06:15:41;2.10;99.90
15749;DHT22;7976;52.526;13.326;2023-02-28T06:18:08;2.00;99.90
15749;DHT22;7976;52.526;13.326;2023-02-28T06:20:36;2.00;99.90
15749;DHT22;7976;52.526;13.326;2023-02-28T06:23:03;1.90;99.90
15749;DHT22;7976;52.526;13.326;2023-02-28T06:25:33;1.90;99.90
15749;DHT22;7976;52.526;13.326;2023-02-28T06:27:59;1.90;99.90
15749;DHT22;7976;52.526;13.326;2023-02-28T06:30:27;1.90;99.90
15749;DHT22;7976;52.526;13.326;2023-02-28T06:32:56;1.90;99.90
15749;DHT22;7976;52.526;13.326;2023-02-28T06:35:23;1.90;99.90
15749;DHT22;7976;52.526;13.326;2023-02-28T06:37:51;1.90;99.90
15749;DHT22;7976;52.526;13.326;2023-02-28T06:40:18;1.90;99.90
15749;DHT22;7976;52.526;13.326;2023-02-28T06:42:45;1.90;99.90
15749;DHT22;7976;52.526;13.326;2023-02-28T06:45:12;1.80;99.90
15749;DHT22;7976;52.526;13.326;2023-02-28T06:47:40;1.90;99.90
15749;DHT22;7976;52.526;13.326;2023-02-28T06:50:10;1.90;99.90
15749;DHT22;7976;52.526;13.326;2023-02-28T06:52:38;1.90;99.90
15749;DHT22;7976;52.526;13.326;2023-02-28T06:55:08;1.90;99.90
15749;DHT22;7976;52.526;13.326;2023-02-28T06:57:35;1.90;99.90
15749;DHT22;7976;52.526;13.326;2023-02-28T07:00:06;1.90;99.90
15749;DHT22;7976;52.526;13.326;2023-02-28T07:02:35;2.00;99.90
15749;DHT22;7976;52.526;13.326;2023-02-28T07:05:03;2.00;99.90
15749;DHT22;7976;52.526;13.326;2023-02-28T07:07:33;2.00;99.90
15749;DHT22;7976;52.526;13.326;2023-02-28T07:10:09;2.00;99.90
15749;DHT22;7976;52.526;13.326;2023-02-28T07:12:37;2.00;99.90
15749;DHT22;7976;52.526;13.326;2023-02-28T07:15:10;2.10;99.90
15749;DHT22;7976;52.526;13.326;2023-02-28T07:17:37;2.10;99.90
15749;DHT22;7976;52.526;13.326;2023-02-28T07:20:05;2.10;99.90
15749;DHT22;7976;52.526;13.326;2023-02-28T07:22:32;2.20;99.90
15749;DHT22;7976;52.526;13.326;2023-02-28T07:25:11;2.20;99.90
15749;DHT22;7976;52.526;13.326;2023-02-28T07:27:38;2.30;99.90
15749;DHT22;7976;52.526;13.326;2023-02-28T07:30:08;2.30;99.90
15749;DHT22;7976;52.526;13.326;2023-02-28T07:32:37;2.40;99.90
15749;DHT22;7976;52.526;13.326;2023-02-28T07:35:07;2.40;99.90
15749;DHT22;7976;52.526;13.326;2023-02-28T07:37:34;2.40;99.90
15749;DHT22;7976;52.526;13.326;2023-02-28T07:40:12;2.50;99.90
15749;DHT22;7976;52.526;13.326;2023-02-28T07:42:40;2.50;99.90
15749;DHT22;7976;52.526;13.326;2023-02-28T07:45:09;2.60;99.90
15749;DHT22;7976;52.526;13.326;2023-02-28T07:47:37;2.60;99.90
15749;DHT22;7976;52.526;13.326;2023-02-28T07:50:14;2.60;99.90
15749;DHT22;7976;52.526;13.326;2023-02-28T07:52:42;2.70;99.90
15749;DHT22;7976;52.526;13.326;2023-02-28T07:55:09;2.80;99.90
15749;DHT22;7976;52.526;13.326;2023-02-28T07:57:39;2.90;99.90
15749;DHT22;7976;52.526;13.326;2023-02-28T08:00:08;2.90;99.90
15749;DHT22;7976;52.526;13.326;2023-02-28T08:02:39;3.00;99.90
15749;DHT22;7976;52.526;13.326;2023-02-28T08:05:07;3.10;99.90
15749;DHT22;7976;52.526;13.326;2023-02-28T08:07:34;3.10;99.90
15749;DHT22;7976;52.526;13.326;2023-02-28T08:10:01;3.10;99.90
15749;DHT22;7976;52.526;13.326;2023-02-28T08:12:29;3.20;99.90
15749;DHT22;7976;52.526;13.326;2023-02-28T08:14:56;3.20;99.90
15749;DHT22;7976;52.526;13.326;2023-02-28T08:17:23;3.30;99.90
15749;DHT22;7976;52.526;13.326;2023-02-28T08:19:50;3.30;99.90
15749;DHT22;7976;52.526;13.326;2023-02-28T08:22:16;3.40;99.90
15749;DHT22;7976;52.526;13.326;2023-02-28T08:24:43;3.40;99.90
15749;DHT22;7976;52.526;13.326;2023-02-28T08:27:10;3.40;99.90
15749;DHT22;7976;52.526;13.326;2023-02-28T08:29:39;3.50;99.90
15749;DHT22;7976;52.526;13.326;2023-02-28T08:32:10;3.50;99.90
15749;DHT22;7976;52.526;13.326;2023-02-28T08:34:39;3.60;99.90
15749;DHT22;7976;52.526;13.326;2023-02-28T08:37:06;3.60;99.90
15749;DHT22;7976;52.526;13.326;2023-02-28T08:39:41;3.70;99.90
15749;DHT22;7976;52.526;13.326;2023-02-28T08:42:08;3.70;99.90
15749;DHT22;7976;52.526;13.326;2023-02-28T08:44:35;3.80;99.90
15749;DHT22;7976;52.526;13.326;2023-02-28T08:47:04;3.80;99.90
15749;DHT22;7976;52.526;13.326;2023-02-28T08:49:31;3.90;99.90
15749;DHT22;7976;52.526;13.326;2023-02-28T08:52:01;4.00;99.90
15749;DHT22;7976;52.526;13.326;2023-02-28T08:54:30;4.10;99.90
15749;DHT22;7976;52.526;13.326;2023-02-28T08:56:58;4.10;99.90
15749;DHT22;7976;52.526;13.326;2023-02-28T08:59:25;4.20;99.90
15749;DHT22;7976;52.526;13.326;2023-02-28T09:01:52;4.30;99.90
15749;DHT22;7976;52.526;13.326;2023-02-28T09:04:20;4.30;99.90
15749;DHT22;7976;52.526;13.326;2023-02-28T09:06:47;4.30;99.90
15749;DHT22;7976;52.526;13.326;2023-02-28T09:09:15;4.40;99.90
15749;DHT22;7976;52.526;13.326;2023-02-28T09:11:42;4.40;99.90
15749;DHT22;7976;52.526;13.326;2023-02-28T09:14:08;4.40;99.90
15749;DHT22;7976;52.526;13.326;2023-02-28T09:16:35;4.50;99.90
15749;DHT22;7976;52.526;13.326;2023-02-28T09:19:02;4.50;99.90
15749;DHT22;7976;52.526;13.326;2023-02-28T09:21:30;4.60;99.90
15749;DHT22;7976;52.526;13.326;2023-02-28T09:23:57;4.60;99.90
15749;DHT22;7976;52.526;13.326;2023-02-28T09:26:26;4.70;99.90
15749;DHT22;7976;52.526;13.326;2023-02-28T09:28:54;4.70;99.90
15749;DHT22;7976;52.526;13.326;2023-02-28T09:31:23;4.70;99.90
15749;DHT22;7976;52.526;13.326;2023-02-28T09:33:55;4.80;99.90
15749;DHT22;7976;52.526;13.326;2023-02-28T09:36:24;4.80;99.90
15749;DHT22;7976;52.526;13.326;2023-02-28T09:38:55;4.80;99.90
15749;DHT22;7976;52.526;13.326;2023-02-28T09:41:23;4.80;99.90
15749;DHT22;7976;52.526;13.326;2023-02-28T09:43:55;4.80;99.90
15749;DHT22;7976;52.526;13.326;2023-02-28T09:46:29;4.90;99.90
15749;DHT22;7976;52.526;13.326;2023-02-28T09:49:02;4.90;99.90
15749;DHT22;7976;52.526;13.326;2023-02-28T09:51:49;4.90;99.90
15749;DHT22;7976;52.526;13.326;2023-02-28T09:54:21;4.90;99.90
15749;DHT22;7976;52.526;13.326;2023-02-28T09:56:51;4.90;99.90
15749;DHT22;7976;52.526;13.326;2023-02-28T09:59:31;4.90;99.90
15749;DHT22;7976;52.526;13.326;2023-02-28T10:02:19;5.00;99.90
15749;DHT22;7976;52.526;13.326;2023-02-28T10:05:05;5.00;99.90
15749;DHT22;7976;52.526;13.326;2023-02-28T10:07:48;5.10;99.90
15749;DHT22;7976;52.526;13.326;2023-02-28T10:10:29;5.00;99.90
15749;DHT22;7976;52.526;13.326;2023-02-28T10:13:35;5.00;99.90
15749;DHT22;7976;52.526;13.326;2023-02-28T10:16:20;5.10;99.90
15749;DHT22;7976;52.526;13.326;2023-02-28T10:18:54;5.10;99.90
15749;DHT22;7976;52.526;13.326;2023-02-28T10:21:27;5.20;99.90
15749;DHT22;7976;52.526;13.326;2023-02-28T10:24:04;5.20;99.90
15749;DHT22;7976;52.526;13.326;2023-02-28T10:26:38;5.30;99.90
15749;DHT22;7976;52.526;13.326;2023-02-28T10:29:09;5.30;99.90
15749;DHT22;7976;52.526;13.326;2023-02-28T10:31:38;5.30;99.90
15749;DHT22;7976;52.526;13.326;2023-02-28T10:34:06;5.40;99.90
15749;DHT22;7976;52.526;13.326;2023-02-28T10:36:33;5.40;99.90
15749;DHT22;7976;52.526;13.326;2023-02-28T10:39:00;5.40;99.90
15749;DHT22;7976;52.526;13.326;2023-02-28T10:41:29;5.50;99.90
15749;DHT22;7976;52.526;13.326;2023-02-28T10:44:16;5.50;99.90
15749;DHT22;7976;52.526;13.326;2023-02-28T10:46:46;5.60;99.90
15749;DHT22;7976;52.526;13.326;2023-02-28T10:49:17;5.60;99.90
15749;DHT22;7976;52.526;13.326;2023-02-28T10:51:50;5.70;99.90
15749;DHT22;7976;52.526;13.326;2023-02-28T10:54:22;5.80;99.90
15749;DHT22;7976;52.526;13.326;2023-02-28T10:57:16;5.80;99.90
15749;DHT22;7976;52.526;13.326;2023-02-28T10:59:50;5.80;99.90
15749;DHT22;7976;52.526;13.326;2023-02-28T11:02:34;5.90;99.90
15749;DHT22;7976;52.526;13.326;2023-02-28T11:05:23;5.90;99.90
15749;DHT22;7976;52.526;13.326;2023-02-28T11:07:54;5.90;99.90
15749;DHT22;7976;52.526;13.326;2023-02-28T11:10:26;5.90;99.90
15749;DHT22;7976;52.526;13.326;2023-02-28T11:13:01;5.80;99.90
15749;DHT22;7976;52.526;13.326;2023-02-28T11:15:32;5.70;99.90
15749;DHT22;7976;52.526;13.326;2023-02-28T11:18:02;5.70;99.90
15749;DHT22;7976;52.526;13.326;2023-02-28T11:20:48;5.70;99.90
15749;DHT22;7976;52.526;13.326;2023-02-28T11:23:18;5.80;99.90
15749;DHT22;7976;52.526;13.326;2023-02-28T11:25:48;5.80;99.90
15749;DHT22;7976;52.526;13.326;2023-02-28T11:28:28;5.80;99.90
15749;DHT22;7976;52.526;13.326;2023-02-28T11:31:04;5.80;99.90
15749;DHT22;7976;52.526;13.326;2023-02-28T11:33:42;5.80;99.90
15749;DHT22;7976;52.526;13.326;2023-02-28T11:36:13;5.80;99.90
15749;DHT22;7976;52.526;13.326;2023-02-28T11:38:42;5.80;99.90
15749;DHT22;7976;52.526;13.326;2023-02-28T11:41:43;5.80;99.90
15749;DHT22;7976;52.526;13.326;2023-02-28T11:44:41;5.70;99.90
15749;DHT22;7976;52.526;13.326;2023-02-28T11:47:29;5.60;99.90
15749;DHT22;7976;52.526;13.326;2023-02-28T11:50:12;5.70;99.90
15749;DHT22;7976;52.526;13.326;2023-02-28T11:52:52;5.80;99.90
15749;DHT22;7976;52.526;13.326;2023-02-28T11:55:24;5.90;99.90
15749;DHT22;7976;52.526;13.326;2023-02-28T11:58:00;6.00;99.90
15749;DHT22;7976;52.526;13.326;2023-02-28T12:00:44;6.00;99.90
15749;DHT22;7976;52.526;13.326;2023-02-28T12:03:38;6.10;99.90
15749;DHT22;7976;52.526;13.326;2023-02-28T12:06:18;6.10;99.90
15749;DHT22;7976;52.526;13.326;2023-02-28T12:09:02;6.00;99.90
15749;DHT22;7976;52.526;13.326;2023-02-28T12:11:46;6.00;99.90
15749;DHT22;7976;52.526;13.326;2023-02-28T12:14:30;6.10;99.90
15749;DHT22;7976;52.526;13.326;2023-02-28T12:17:22;6.10;99.90
15749;DHT22;7976;52.526;13.326;2023-02-28T12:20:08;6.10;99.90
15749;DHT22;7976;52.526;13.326;2023-02-28T12:22:52;6.10;99.90
15749;DHT22;7976;52.526;13.326;2023-02-28T12:25:50;6.00;99.90
15749;DHT22;7976;52.526;13.326;2023-02-28T12:28:30;6.00;99.90
15749;DHT22;7976;52.526;13.326;2023-02-28T12:31:05;6.00;99.90
15749;DHT22;7976;52.526;13.326;2023-02-28T12:33:39;6.00;99.90
15749;DHT22;7976;52.526;13.326;2023-02-28T12:36:15;6.10;99.90
15749;DHT22;7976;52.526;13.326;2023-02-28T12:38:50;6.10;99.90
15749;DHT22;7976;52.526;13.326;2023-02-28T12:41:24;6.20;99.90
15749;DHT22;7976;52.526;13.326;2023-02-28T12:44:01;6.20;99.90
15749;DHT22;7976;52.526;13.326;2023-02-28T12:46:33;6.10;99.90
15749;DHT22;7976;52.526;13.326;2023-02-28T12:49:07;6.10;99.90
15749;DHT22;7976;52.526;13.326;2023-02-28T12:51:45;6.10;99.90
15749;DHT22;7976;52.526;13.326;2023-02-28T12:54:21;6.10;99.90
15749;DHT22;7976;52.526;13.326;2023-02-28T12:56:58;6.10;99.90
15749;DHT22;7976;52.526;13.326;2023-02-28T12:59:39;6.10;99.90
15749;DHT22;7976;52.526;13.326;2023-02-28T13:02:39;6.10;99.90
15749;DHT22;7976;52.526;13.326;2023-02-28T13:09:06;6.20;99.90
15749;DHT22;7976;52.526;13.326;2023-02-28T13:11:41;6.20;99.90
15749;DHT22;7976;52.526;13.326;2023-02-28T13:14:20;6.20;99.90
15749;DHT22;7976;52.526;13.326;2023-02-28T13:17:10;6.10;99.90
15749;DHT22;7976;52.526;13.326;2023-02-28T13:19:41;6.10;99.90
15749;DHT22;7976;52.526;13.326;2023-02-28T13:22:20;6.10;99.90
15749;DHT22;7976;52.526;13.326;2023-02-28T13:38:31;6.40;99.90
15749;DHT22;7976;52.526;13.326;2023-02-28T13:41:45;6.30;99.90
15749;DHT22;7976;52.526;13.326;2023-02-28T13:44:15;6.30;99.90
15749;DHT22;7976;52.526;13.326;2023-02-28T13:47:19;6.30;99.90
15749;DHT22;7976;52.526;13.326;2023-02-28T13:49:50;6.30;99.90
15749;DHT22;7976;52.526;13.326;2023-02-28T13:52:21;6.30;99.90
15749;DHT22;7976;52.526;13.326;2023-02-28T13:55:13;6.30;99.90
15749;DHT22;7976;52.526;13.326;2023-02-28T13:58:03;6.20;99.90
15749;DHT22;7976;52.526;13.326;2023-02-28T14:00:49;6.20;99.90
15749;DHT22;7976;52.526;13.326;2023-02-28T14:03:49;6.20;99.90
15749;DHT22;7976;52.526;13.326;2023-02-28T14:06:28;6.20;99.90
15749;DHT22;7976;52.526;13.326;2023-02-28T14:09:00;6.20;99.90
15749;DHT22;7976;52.526;13.326;2023-02-28T14:11:32;6.20;99.90
15749;DHT22;7976;52.526;13.326;2023-02-28T14:14:02;6.30;99.90
15749;DHT22;7976;52.526;13.326;2023-02-28T14:16:37;6.20;99.90
15749;DHT22;7976;52.526;13.326;2023-02-28T14:19:12;6.20;99.90
15749;DHT22;7976;52.526;13.326;2023-02-28T14:21:56;6.20;99.90
15749;DHT22;7976;52.526;13.326;2023-02-28T14:24:59;6.20;99.90
15749;DHT22;7976;52.526;13.326;2023-02-28T14:27:41;6.20;99.90
15749;DHT22;7976;52.526;13.326;2023-02-28T14:30:36;6.20;99.90
15749;DHT22;7976;52.526;13.326;2023-02-28T14:33:26;6.20;99.90
15749;DHT22;7976;52.526;13.326;2023-02-28T14:36:08;6.20;99.90
15749;DHT22;7976;52.526;13.326;2023-02-28T14:38:45;6.10;99.90
15749;DHT22;7976;52.526;13.326;2023-02-28T14:41:20;6.10;99.90
15749;DHT22;7976;52.526;13.326;2023-02-28T14:43:51;6.10;99.90
15749;DHT22;7976;52.526;13.326;2023-02-28T14:46:27;6.10;99.90
15749;DHT22;7976;52.526;13.326;2023-02-28T14:49:03;6.00;99.90
15749;DHT22;7976;52.526;13.326;2023-02-28T14:51:31;6.00;99.90
15749;DHT22;7976;52.526;13.326;2023-02-28T14:54:00;6.00;99.90
15749;DHT22;7976;52.526;13.326;2023-02-28T14:56:32;6.00;99.90
15749;DHT22;7976;52.526;13.326;2023-02-28T14:59:01;6.00;99.90
15749;DHT22;7976;52.526;13.326;2023-02-28T15:01:31;6.00;99.90
15749;DHT22;7976;52.526;13.326;2023-02-28T15:04:01;5.90;99.90
15749;DHT22;7976;52.526;13.326;2023-02-28T15:06:30;5.90;99.90
15749;DHT22;7976;52.526;13.326;2023-02-28T15:09:08;5.90;99.90
15749;DHT22;7976;52.526;13.326;2023-02-28T15:11:38;5.90;99.90
15749;DHT22;7976;52.526;13.326;2023-02-28T15:14:06;5.90;99.90
15749;DHT22;7976;52.526;13.326;2023-02-28T15:16:36;5.90;99.90
15749;DHT22;7976;52.526;13.326;2023-02-28T15:19:12;5.90;99.90
15749;DHT22;7976;52.526;13.326;2023-02-28T15:21:48;5.80;99.90
15749;DHT22;7976;52.526;13.326;2023-02-28T15:24:20;5.80;99.90
15749;DHT22;7976;52.526;13.326;2023-02-28T15:26:55;5.80;99.90
15749;DHT22;7976;52.526;13.326;2023-02-28T15:29:25;5.80;99.90
15749;DHT22;7976;52.526;13.326;2023-02-28T15:32:00;5.80;99.90
15749;DHT22;7976;52.526;13.326;2023-02-28T15:34:34;5.80;99.90
15749;DHT22;7976;52.526;13.326;2023-02-28T15:37:23;5.80;99.90
15749;DHT22;7976;52.526;13.326;2023-02-28T15:39:57;5.80;99.90
15749;DHT22;7976;52.526;13.326;2023-02-28T15:42:30;5.70;99.90
15749;DHT22;7976;52.526;13.326;2023-02-28T15:44:57;5.70;99.90
15749;DHT22;7976;52.526;13.326;2023-02-28T15:47:29;5.70;99.90
15749;DHT22;7976;52.526;13.326;2023-02-28T15:49:58;5.70;99.90
15749;DHT22;7976;52.526;13.326;2023-02-28T15:52:29;5.70;99.90
15749;DHT22;7976;52.526;13.326;2023-02-28T15:55:09;5.60;99.90
15749;DHT22;7976;52.526;13.326;2023-02-28T15:57:39;5.60;99.90
15749;DHT22;7976;52.526;13.326;2023-02-28T16:00:12;5.60;99.90
15749;DHT22;7976;52.526;13.326;2023-02-28T16:02:44;5.60;99.90
15749;DHT22;7976;52.526;13.326;2023-02-28T16:05:21;5.50;99.90
15749;DHT22;7976;52.526;13.326;2023-02-28T16:07:54;5.50;99.90
15749;DHT22;7976;52.526;13.326;2023-02-28T16:10:24;5.50;99.90
15749;DHT22;7976;52.526;13.326;2023-02-28T16:12:54;5.50;99.90
15749;DHT22;7976;52.526;13.326;2023-02-28T16:15:24;5.50;99.90
15749;DHT22;7976;52.526;13.326;2023-02-28T16:17:54;5.50;99.90
15749;DHT22;7976;52.526;13.326;2023-02-28T16:20:25;5.40;99.90
15749;DHT22;7976;52.526;13.326;2023-02-28T16:22:53;5.40;99.90
15749;DHT22;7976;52.526;13.326;2023-02-28T16:25:25;5.40;99.90
15749;DHT22;7976;52.526;13.326;2023-02-28T16:27:58;5.40;99.90
15749;DHT22;7976;52.526;13.326;2023-02-28T16:30:28;5.30;99.90
15749;DHT22;7976;52.526;13.326;2023-02-28T16:33:01;5.30;99.90
15749;DHT22;7976;52.526;13.326;2023-02-28T16:35:28;5.30;99.90
15749;DHT22;7976;52.526;13.326;2023-02-28T16:38:01;5.30;99.90
15749;DHT22;7976;52.526;13.326;2023-02-28T16:40:33;5.30;99.90
15749;DHT22;7976;52.526;13.326;2023-02-28T16:43:05;5.20;99.90
15749;DHT22;7976;52.526;13.326;2023-02-28T16:45:38;5.20;99.90